sensor_id;sensor_type;location;lat;lon;timestamp;pressure;altitude;pressure_sealevel;temperature;humidity
64683;BME280;51107;47.652;19.016;2023-04-05T00:01:16;100203.75;;;1.72;50.26
64683;BME280;51107;47.652;19.016;2023-04-05T00:03:47;100196.13;;;1.70;50.10
64683;BME280;51107;47.652;19.016;2023-04-05T00:06:16;100204.09;;;1.66;50.28
64683;BME280;51107;47.652;19.016;2023-04-05T00:08:44;100195.50;;;1.67;50.05
64683;BME280;51107;47.652;19.016;2023-04-05T00:11:17;100195.41;;;1.68;49.70
64683;BME280;51107;47.652;19.016;2023-04-05T00:13:45;100196.31;;;1.67;49.62
64683;BME280;51107;47.652;19.016;2023-04-05T00:16:15;100195.16;;;1.57;50.35
64683;BME280;51107;47.652;19.016;2023-04-05T00:18:44;100193.34;;;1.59;50.18
64683;BME280;51107;47.652;19.016;2023-04-05T00:21:13;100195.88;;;1.43;51.04
64683;BME280;51107;47.652;19.016;2023-04-05T00:23:41;100193.25;;;1.45;50.69
64683;BME280;51107;47.652;19.016;2023-04-05T00:26:12;100186.75;;;1.38;51.41
64683;BME280;51107;47.652;19.016;2023-04-05T00:28:41;100198.88;;;1.35;51.63
64683;BME280;51107;47.652;19.016;2023-04-05T00:31:10;100191.25;;;1.34;51.30
64683;BME280;51107;47.652;19.016;2023-04-05T00:33:39;100195.44;;;1.35;51.55
64683;BME280;51107;47.652;19.016;2023-04-05T00:36:11;100189.00;;;1.28;51.88
64683;BME280;51107;47.652;19.016;2023-04-05T00:38:41;100188.34;;;1.24;51.92
64683;BME280;51107;47.652;19.016;2023-04-05T00:41:10;100180.66;;;1.24;51.61
64683;BME280;51107;47.652;19.016;2023-04-05T00:43:39;100181.62;;;1.38;50.82
64683;BME280;51107;47.652;19.016;2023-04-05T00:46:09;100188.34;;;1.24;51.80
64683;BME280;51107;47.652;19.016;2023-04-05T00:48:38;100188.34;;;1.24;51.87
64683;BME280;51107;47.652;19.016;2023-04-05T00:51:09;100179.72;;;1.25;52.19
64683;BME280;51107;47.652;19.016;2023-04-05T00:53:39;100192.87;;;1.19;52.91
64683;BME280;51107;47.652;19.016;2023-04-05T00:56:08;100176.06;;;1.13;53.27
64683;BME280;51107;47.652;19.016;2023-04-05T00:58:37;100178.94;;;1.07;53.42
64683;BME280;51107;47.652;19.016;2023-04-05T01:01:17;100188.78;;;0.99;53.63
64683;BME280;51107;47.652;19.016;2023-04-05T01:03:56;100181.38;;;1.10;53.17
64683;BME280;51107;47.652;19.016;2023-04-05T01:09:47;100185.66;;;1.10;52.69
64683;BME280;51107;47.652;19.016;2023-04-05T01:12:23;100183.63;;;0.99;53.44
64683;BME280;51107;47.652;19.016;2023-04-05T01:14:54;100186.06;;;1.02;53.88
64683;BME280;51107;47.652;19.016;2023-04-05T01:17:25;100181.25;;;0.96;52.82
64683;BME280;51107;47.652;19.016;2023-04-05T01:19:59;100177.00;;;0.95;53.74
64683;BME280;51107;47.652;19.016;2023-04-05T01:36:25;100178.12;;;1.07;52.55
64683;BME280;51107;47.652;19.016;2023-04-05T01:38:56;100165.47;;;1.04;53.62
64683;BME280;51107;47.652;19.016;2023-04-05T01:41:25;100178.41;;;1.00;54.65
64683;BME280;51107;47.652;19.016;2023-04-05T01:43:54;100174.78;;;1.05;53.88
64683;BME280;51107;47.652;19.016;2023-04-05T01:46:22;100176.53;;;1.04;53.95
64683;BME280;51107;47.652;19.016;2023-04-05T01:48:51;100176.03;;;0.97;53.54
64683;BME280;51107;47.652;19.016;2023-04-05T01:51:20;100165.31;;;0.89;53.30
64683;BME280;51107;47.652;19.016;2023-04-05T01:53:48;100170.53;;;0.88;53.24
64683;BME280;51107;47.652;19.016;2023-04-05T01:56:16;100168.66;;;0.91;52.99
64683;BME280;51107;47.652;19.016;2023-04-05T01:58:45;100170.62;;;0.86;52.93
64683;BME280;51107;47.652;19.016;2023-04-05T02:01:13;100175.31;;;0.78;53.52
64683;BME280;51107;47.652;19.016;2023-04-05T02:03:42;100164.34;;;0.92;53.13
64683;BME280;51107;47.652;19.016;2023-04-05T02:06:10;100164.88;;;0.81;53.28
64683;BME280;51107;47.652;19.016;2023-04-05T02:08:38;100174.50;;;0.77;53.97
64683;BME280;51107;47.652;19.016;2023-04-05T02:11:07;100167.78;;;0.75;53.73
64683;BME280;51107;47.652;19.016;2023-04-05T02:13:35;100167.09;;;0.71;53.77
64683;BME280;51107;47.652;19.016;2023-04-05T02:16:04;100165.94;;;0.77;53.09
64683;BME280;51107;47.652;19.016;2023-04-05T02:18:33;100177.09;;;0.76;53.37
64683;BME280;51107;47.652;19.016;2023-04-05T02:21:03;100165.34;;;0.72;52.93
64683;BME280;51107;47.652;19.016;2023-04-05T02:23:33;100161.69;;;0.60;54.10
64683;BME280;51107;47.652;19.016;2023-04-05T02:26:01;100155.50;;;0.64;53.13
64683;BME280;51107;47.652;19.016;2023-04-05T02:28:30;100156.31;;;0.64;54.00
64683;BME280;51107;47.652;19.016;2023-04-05T02:30:59;100160.62;;;0.64;53.48
64683;BME280;51107;47.652;19.016;2023-04-05T02:33:28;100160.03;;;0.59;54.50
64683;BME280;51107;47.652;19.016;2023-04-05T02:35:56;100166.75;;;0.61;53.99
64683;BME280;51107;47.652;19.016;2023-04-05T02:38:25;100163.56;;;0.56;54.39
64683;BME280;51107;47.652;19.016;2023-04-05T02:40:54;100167.97;;;0.54;54.56
64683;BME280;51107;47.652;19.016;2023-04-05T02:43:22;100165.16;;;0.59;53.73
64683;BME280;51107;47.652;19.016;2023-04-05T02:45:51;100158.16;;;0.45;54.32
64683;BME280;51107;47.652;19.016;2023-04-05T02:48:19;100156.50;;;0.26;54.84
64683;BME280;51107;47.652;19.016;2023-04-05T02:50:51;100160.25;;;0.37;54.84
64683;BME280;51107;47.652;19.016;2023-04-05T02:53:20;100160.56;;;0.48;54.19
64683;BME280;51107;47.652;19.016;2023-04-05T02:55:53;100150.00;;;0.37;54.24
64683;BME280;51107;47.652;19.016;2023-04-05T02:58:23;100157.16;;;0.30;54.54
64683;BME280;51107;47.652;19.016;2023-04-05T03:00:51;100147.44;;;0.37;54.27
64683;BME280;51107;47.652;19.016;2023-04-05T03:03:22;100160.34;;;0.35;54.17
64683;BME280;51107;47.652;19.016;2023-04-05T03:05:58;100154.25;;;0.38;54.16
64683;BME280;51107;47.652;19.016;2023-04-05T03:08:38;100145.41;;;0.43;53.50
64683;BME280;51107;47.652;19.016;2023-04-05T03:11:12;100144.50;;;0.27;54.62
64683;BME280;51107;47.652;19.016;2023-04-05T03:13:42;100155.47;;;0.30;54.63
64683;BME280;51107;47.652;19.016;2023-04-05T03:16:11;100158.97;;;0.10;54.80
64683;BME280;51107;47.652;19.016;2023-04-05T03:18:40;100148.72;;;0.10;55.16
64683;BME280;51107;47.652;19.016;2023-04-05T03:21:08;100148.22;;;0.21;54.92
64683;BME280;51107;47.652;19.016;2023-04-05T03:23:39;100146.63;;;0.19;54.34
64683;BME280;51107;47.652;19.016;2023-04-05T03:26:08;100149.72;;;0.25;54.21
64683;BME280;51107;47.652;19.016;2023-04-05T03:28:38;100156.09;;;0.16;54.45
64683;BME280;51107;47.652;19.016;2023-04-05T03:31:13;100151.06;;;0.15;54.02
64683;BME280;51107;47.652;19.016;2023-04-05T03:33:41;100153.50;;;0.18;54.25
64683;BME280;51107;47.652;19.016;2023-04-05T03:36:10;100154.22;;;0.20;54.21
64683;BME280;51107;47.652;19.016;2023-04-05T03:38:39;100157.56;;;0.22;53.39
64683;BME280;51107;47.652;19.016;2023-04-05T03:41:09;100153.56;;;0.34;52.68
64683;BME280;51107;47.652;19.016;2023-04-05T03:43:38;100158.91;;;0.29;53.09
64683;BME280;51107;47.652;19.016;2023-04-05T03:46:06;100162.53;;;0.25;53.17
64683;BME280;51107;47.652;19.016;2023-04-05T03:48:35;100163.19;;;0.29;53.19
64683;BME280;51107;47.652;19.016;2023-04-05T03:51:03;100173.22;;;0.16;53.33
64683;BME280;51107;47.652;19.016;2023-04-05T03:53:32;100178.19;;;0.02;54.19
64683;BME280;51107;47.652;19.016;2023-04-05T03:56:00;100178.56;;;0.11;53.67
64683;BME280;51107;47.652;19.016;2023-04-05T03:58:32;100176.91;;;0.10;53.29
64683;BME280;51107;47.652;19.016;2023-04-05T04:01:01;100176.13;;;0.08;53.77
64683;BME280;51107;47.652;19.016;2023-04-05T04:03:30;100167.78;;;0.05;53.78
64683;BME280;51107;47.652;19.016;2023-04-05T04:05:59;100177.41;;;-0.01;54.13
64683;BME280;51107;47.652;19.016;2023-04-05T04:08:28;100184.75;;;0.07;53.45
64683;BME280;51107;47.652;19.016;2023-04-05T04:10:58;100183.91;;;0.07;53.55
64683;BME280;51107;47.652;19.016;2023-04-05T04:13:27;100173.66;;;0.07;53.98
64683;BME280;51107;47.652;19.016;2023-04-05T04:15:56;100174.56;;;0.06;53.85
64683;BME280;51107;47.652;19.016;2023-04-05T04:18:25;100171.72;;;0.12;53.27
64683;BME280;51107;47.652;19.016;2023-04-05T04:20:53;100179.00;;;0.02;53.71
64683;BME280;51107;47.652;19.016;2023-04-05T04:23:26;100174.84;;;-0.01;53.91
64683;BME280;51107;47.652;19.016;2023-04-05T04:25:54;100178.19;;;0.02;53.55
64683;BME280;51107;47.652;19.016;2023-04-05T04:28:24;100181.66;;;0.01;54.10
64683;BME280;51107;47.652;19.016;2023-04-05T04:30:54;100185.56;;;0.08;53.49
64683;BME280;51107;47.652;19.016;2023-04-05T04:33:24;100182.38;;;0.03;54.19
64683;BME280;51107;47.652;19.016;2023-04-05T04:35:54;100190.75;;;0.06;54.15
64683;BME280;51107;47.652;19.016;2023-04-05T04:38:23;100185.34;;;0.12;53.58
64683;BME280;51107;47.652;19.016;2023-04-05T04:40:54;100178.50;;;0.13;53.48
64683;BME280;51107;47.652;19.016;2023-04-05T04:43:25;100186.66;;;0.21;52.98
64683;BME280;51107;47.652;19.016;2023-04-05T04:45:54;100197.72;;;0.22;53.61
64683;BME280;51107;47.652;19.016;2023-04-05T04:48:24;100195.91;;;0.24;54.31
64683;BME280;51107;47.652;19.016;2023-04-05T04:50:53;100193.44;;;0.22;53.97
64683;BME280;51107;47.652;19.016;2023-04-05T04:53:22;100187.31;;;0.25;53.50
64683;BME280;51107;47.652;19.016;2023-04-05T04:55:51;100186.94;;;0.32;53.50
64683;BME280;51107;47.652;19.016;2023-04-05T04:58:22;100188.16;;;0.43;53.39
64683;BME280;51107;47.652;19.016;2023-04-05T05:00:51;100192.00;;;0.34;53.62
64683;BME280;51107;47.652;19.016;2023-04-05T05:03:20;100197.97;;;0.35;53.52
64683;BME280;51107;47.652;19.016;2023-04-05T05:05:49;100194.28;;;0.40;53.28
64683;BME280;51107;47.652;19.016;2023-04-05T05:08:19;100194.13;;;0.43;53.34
64683;BME280;51107;47.652;19.016;2023-04-05T05:10:51;100195.38;;;0.52;54.29
64683;BME280;51107;47.652;19.016;2023-04-05T05:13:21;100187.00;;;0.66;53.19
64683;BME280;51107;47.652;19.016;2023-04-05T05:15:50;100193.88;;;0.65;53.43
64683;BME280;51107;47.652;19.016;2023-04-05T05:18:20;100194.00;;;0.80;53.18
64683;BME280;51107;47.652;19.016;2023-04-05T05:20:51;100195.75;;;0.79;51.74
64683;BME280;51107;47.652;19.016;2023-04-05T05:23:19;100198.84;;;0.86;52.89
64683;BME280;51107;47.652;19.016;2023-04-05T05:25:48;100202.75;;;0.93;51.55
64683;BME280;51107;47.652;19.016;2023-04-05T05:28:17;100196.25;;;1.04;51.88
64683;BME280;51107;47.652;19.016;2023-04-05T05:30:45;100206.87;;;0.96;51.91
64683;BME280;51107;47.652;19.016;2023-04-05T05:33:14;100205.53;;;1.06;51.90
64683;BME280;51107;47.652;19.016;2023-04-05T05:35:43;100202.53;;;1.14;51.37
64683;BME280;51107;47.652;19.016;2023-04-05T05:38:15;100202.00;;;1.25;51.24
64683;BME280;51107;47.652;19.016;2023-04-05T05:40:43;100198.28;;;1.30;52.25
64683;BME280;51107;47.652;19.016;2023-04-05T05:43:12;100205.97;;;1.30;51.82
64683;BME280;51107;47.652;19.016;2023-04-05T05:45:40;100196.91;;;1.41;51.62
64683;BME280;51107;47.652;19.016;2023-04-05T05:48:09;100205.31;;;1.27;49.85
64683;BME280;51107;47.652;19.016;2023-04-05T05:50:38;100203.16;;;1.35;49.84
64683;BME280;51107;47.652;19.016;2023-04-05T05:53:07;100189.84;;;1.44;50.15
64683;BME280;51107;47.652;19.016;2023-04-05T05:55:35;100200.31;;;1.57;49.65
64683;BME280;51107;47.652;19.016;2023-04-05T05:58:03;100191.66;;;1.58;48.94
64683;BME280;51107;47.652;19.016;2023-04-05T06:00:32;100196.22;;;1.69;48.75
64683;BME280;51107;47.652;19.016;2023-04-05T06:03:00;100200.19;;;1.75;49.57
64683;BME280;51107;47.652;19.016;2023-04-05T06:05:29;100188.94;;;1.93;48.02
64683;BME280;51107;47.652;19.016;2023-04-05T06:07:58;100202.28;;;1.84;49.02
64683;BME280;51107;47.652;19.016;2023-04-05T06:10:26;100200.28;;;1.89;49.19
64683;BME280;51107;47.652;19.016;2023-04-05T06:12:54;100195.78;;;1.93;47.01
64683;BME280;51107;47.652;19.016;2023-04-05T06:15:22;100200.94;;;1.93;48.22
64683;BME280;51107;47.652;19.016;2023-04-05T06:17:51;100199.69;;;2.00;48.16
64683;BME280;51107;47.652;19.016;2023-04-05T06:20:19;100203.22;;;2.13;48.02
64683;BME280;51107;47.652;19.016;2023-04-05T06:22:48;100191.94;;;2.16;48.39
64683;BME280;51107;47.652;19.016;2023-04-05T06:25:16;100199.06;;;2.27;47.85
64683;BME280;51107;47.652;19.016;2023-04-05T06:27:45;100197.78;;;2.34;47.02
64683;BME280;51107;47.652;19.016;2023-04-05T06:30:13;100201.59;;;2.43;48.34
64683;BME280;51107;47.652;19.016;2023-04-05T06:32:42;100198.47;;;2.52;46.73
64683;BME280;51107;47.652;19.016;2023-04-05T06:35:11;100198.09;;;2.44;46.63
64683;BME280;51107;47.652;19.016;2023-04-05T06:37:39;100200.09;;;2.69;47.84
64683;BME280;51107;47.652;19.016;2023-04-05T06:40:09;100200.38;;;2.79;46.31
64683;BME280;51107;47.652;19.016;2023-04-05T06:42:37;100193.37;;;2.81;46.16
64683;BME280;51107;47.652;19.016;2023-04-05T06:45:06;100204.72;;;2.93;46.48
64683;BME280;51107;47.652;19.016;2023-04-05T06:47:36;100207.63;;;2.86;45.07
64683;BME280;51107;47.652;19.016;2023-04-05T06:50:06;100209.94;;;2.91;45.14
64683;BME280;51107;47.652;19.016;2023-04-05T06:52:35;100204.81;;;3.05;45.42
64683;BME280;51107;47.652;19.016;2023-04-05T06:55:03;100201.31;;;2.92;44.13
64683;BME280;51107;47.652;19.016;2023-04-05T06:57:32;100211.16;;;3.00;44.44
64683;BME280;51107;47.652;19.016;2023-04-05T07:00:01;100200.03;;;3.14;45.08
64683;BME280;51107;47.652;19.016;2023-04-05T07:02:29;100204.81;;;3.20;46.04
64683;BME280;51107;47.652;19.016;2023-04-05T07:05:00;100205.25;;;3.12;45.07
64683;BME280;51107;47.652;19.016;2023-04-05T07:07:33;100188.81;;;3.15;44.40
64683;BME280;51107;47.652;19.016;2023-04-05T07:10:05;100194.31;;;3.23;45.34
64683;BME280;51107;47.652;19.016;2023-04-05T07:12:34;100189.34;;;3.34;44.98
64683;BME280;51107;47.652;19.016;2023-04-05T07:15:03;100196.22;;;3.48;44.30
64683;BME280;51107;47.652;19.016;2023-04-05T07:17:31;100201.16;;;3.66;44.08
64683;BME280;51107;47.652;19.016;2023-04-05T07:20:00;100200.78;;;3.99;43.72
64683;BME280;51107;47.652;19.016;2023-04-05T07:22:29;100195.81;;;4.23;44.34
64683;BME280;51107;47.652;19.016;2023-04-05T07:24:57;100199.16;;;4.38;43.91
64683;BME280;51107;47.652;19.016;2023-04-05T07:27:27;100194.66;;;4.55;42.57
64683;BME280;51107;47.652;19.016;2023-04-05T07:29:57;100198.88;;;5.07;42.40
64683;BME280;51107;47.652;19.016;2023-04-05T07:32:26;100192.59;;;4.99;41.77
64683;BME280;51107;47.652;19.016;2023-04-05T07:34:55;100192.06;;;5.56;42.37
64683;BME280;51107;47.652;19.016;2023-04-05T07:37:23;100196.09;;;5.60;42.88
64683;BME280;51107;47.652;19.016;2023-04-05T07:39:52;100190.03;;;5.86;40.20
64683;BME280;51107;47.652;19.016;2023-04-05T07:42:20;100189.00;;;6.12;39.15
64683;BME280;51107;47.652;19.016;2023-04-05T07:44:49;100183.47;;;6.53;39.34
64683;BME280;51107;47.652;19.016;2023-04-05T07:47:18;100190.94;;;6.80;39.30
64683;BME280;51107;47.652;19.016;2023-04-05T07:49:46;100195.09;;;7.17;40.17
64683;BME280;51107;47.652;19.016;2023-04-05T07:52:14;100186.84;;;7.11;38.76
64683;BME280;51107;47.652;19.016;2023-04-05T07:54:43;100192.19;;;7.65;37.71
64683;BME280;51107;47.652;19.016;2023-04-05T07:57:16;100182.72;;;7.87;36.68
64683;BME280;51107;47.652;19.016;2023-04-05T07:59:47;100186.34;;;8.28;36.18
64683;BME280;51107;47.652;19.016;2023-04-05T08:02:18;100176.50;;;8.31;35.93
64683;BME280;51107;47.652;19.016;2023-04-05T08:04:47;100187.28;;;7.94;37.54
64683;BME280;51107;47.652;19.016;2023-04-05T08:07:15;100184.91;;;8.56;34.79
64683;BME280;51107;47.652;19.016;2023-04-05T08:09:43;100190.31;;;8.95;35.09
64683;BME280;51107;47.652;19.016;2023-04-05T08:12:13;100186.19;;;8.93;34.56
64683;BME280;51107;47.652;19.016;2023-04-05T08:14:41;100181.12;;;9.32;34.85
64683;BME280;51107;47.652;19.016;2023-04-05T08:17:09;99952.63;;;8.08;33.60
64683;BME280;51107;47.652;19.016;2023-04-05T08:19:38;100187.22;;;9.11;35.68
64683;BME280;51107;47.652;19.016;2023-04-05T08:22:09;100176.69;;;9.63;35.58
64683;BME280;51107;47.652;19.016;2023-04-05T08:24:38;100184.69;;;10.40;33.23
64683;BME280;51107;47.652;19.016;2023-04-05T08:27:06;100181.47;;;9.58;32.97
64683;BME280;51107;47.652;19.016;2023-04-05T08:29:35;100183.78;;;9.51;33.09
64683;BME280;51107;47.652;19.016;2023-04-05T08:32:05;100189.97;;;9.10;33.41
64683;BME280;51107;47.652;19.016;2023-04-05T08:34:33;100177.50;;;9.54;34.27
64683;BME280;51107;47.652;19.016;2023-04-05T08:37:02;100177.81;;;10.00;33.17
64683;BME280;51107;47.652;19.016;2023-04-05T08:39:30;100173.31;;;10.41;32.14
64683;BME280;51107;47.652;19.016;2023-04-05T08:42:12;100171.81;;;10.48;33.50
64683;BME280;51107;47.652;19.016;2023-04-05T08:44:43;100174.62;;;10.75;33.56
64683;BME280;51107;47.652;19.016;2023-04-05T08:47:17;100183.63;;;10.90;30.94
64683;BME280;51107;47.652;19.016;2023-04-05T08:49:46;100179.56;;;10.68;31.54
64683;BME280;51107;47.652;19.016;2023-04-05T08:52:16;100177.97;;;10.38;31.64
64683;BME280;51107;47.652;19.016;2023-04-05T08:54:45;100178.31;;;10.72;32.28
64683;BME280;51107;47.652;19.016;2023-04-05T08:57:14;100169.75;;;9.93;32.13
64683;BME280;51107;47.652;19.016;2023-04-05T08:59:44;100174.12;;;10.12;31.63
64683;BME280;51107;47.652;19.016;2023-04-05T09:02:14;100168.66;;;10.06;31.74
64683;BME280;51107;47.652;19.016;2023-04-05T09:04:46;100152.69;;;10.58;31.38
64683;BME280;51107;47.652;19.016;2023-04-05T09:07:16;100165.19;;;11.01;30.85
64683;BME280;51107;47.652;19.016;2023-04-05T09:09:52;100160.84;;;10.45;29.08
64683;BME280;51107;47.652;19.016;2023-04-05T09:12:23;100158.78;;;10.48;31.23
64683;BME280;51107;47.652;19.016;2023-04-05T09:14:52;100158.50;;;10.12;30.65
64683;BME280;51107;47.652;19.016;2023-04-05T09:17:21;100164.78;;;9.51;31.59
64683;BME280;51107;47.652;19.016;2023-04-05T09:19:50;100170.25;;;9.07;32.38
64683;BME280;51107;47.652;19.016;2023-04-05T09:22:21;100159.34;;;9.83;32.53
64683;BME280;51107;47.652;19.016;2023-04-05T09:24:50;100165.28;;;10.72;32.56
64683;BME280;51107;47.652;19.016;2023-04-05T09:27:19;100159.91;;;11.11;31.98
64683;BME280;51107;47.652;19.016;2023-04-05T09:29:49;100156.72;;;11.45;30.60
64683;BME280;51107;47.652;19.016;2023-04-05T09:32:17;100150.25;;;11.67;33.78
64683;BME280;51107;47.652;19.016;2023-04-05T09:34:52;100150.34;;;11.76;30.41
64683;BME280;51107;47.652;19.016;2023-04-05T09:37:21;100160.66;;;11.95;29.40
64683;BME280;51107;47.652;19.016;2023-04-05T09:39:50;100153.72;;;9.68;33.05
64683;BME280;51107;47.652;19.016;2023-04-05T09:42:30;100152.00;;;10.65;32.37
64683;BME280;51107;47.652;19.016;2023-04-05T09:45:10;100153.41;;;10.97;31.09
64683;BME280;51107;47.652;19.016;2023-04-05T09:47:40;100149.34;;;10.85;31.75
64683;BME280;51107;47.652;19.016;2023-04-05T09:52:43;100146.16;;;10.34;31.83
64683;BME280;51107;47.652;19.016;2023-04-05T09:55:12;100137.53;;;10.04;33.25
64683;BME280;51107;47.652;19.016;2023-04-05T09:57:41;100142.56;;;11.02;31.02
64683;BME280;51107;47.652;19.016;2023-04-05T10:00:22;100137.09;;;11.23;30.43
64683;BME280;51107;47.652;19.016;2023-04-05T10:02:54;100132.41;;;10.99;33.35
64683;BME280;51107;47.652;19.016;2023-04-05T10:05:25;100137.69;;;11.35;31.38
64683;BME280;51107;47.652;19.016;2023-04-05T10:07:55;100128.66;;;11.29;30.92
64683;BME280;51107;47.652;19.016;2023-04-05T10:10:24;100125.34;;;11.37;32.40
64683;BME280;51107;47.652;19.016;2023-04-05T10:12:52;100132.94;;;11.30;30.00
64683;BME280;51107;47.652;19.016;2023-04-05T10:15:23;100131.38;;;10.15;32.86
64683;BME280;51107;47.652;19.016;2023-04-05T10:18:10;100141.41;;;10.10;32.39
64683;BME280;51107;47.652;19.016;2023-04-05T10:20:44;100132.75;;;9.90;33.05
64683;BME280;51107;47.652;19.016;2023-04-05T10:23:27;100130.22;;;8.58;34.14
64683;BME280;51107;47.652;19.016;2023-04-05T10:26:25;100133.34;;;8.82;32.84
64683;BME280;51107;47.652;19.016;2023-04-05T10:29:01;100121.09;;;9.45;36.95
64683;BME280;51107;47.652;19.016;2023-04-05T10:31:49;100110.44;;;9.97;33.08
64683;BME280;51107;47.652;19.016;2023-04-05T10:34:38;100111.37;;;10.73;32.07
64683;BME280;51107;47.652;19.016;2023-04-05T10:37:21;100117.44;;;11.01;32.40
64683;BME280;51107;47.652;19.016;2023-04-05T10:39:54;100113.34;;;11.44;32.49
64683;BME280;51107;47.652;19.016;2023-04-05T10:42:27;100110.03;;;11.06;30.34
64683;BME280;51107;47.652;19.016;2023-04-05T10:45:01;100117.38;;;10.26;32.02
64683;BME280;51107;47.652;19.016;2023-04-05T10:47:37;100112.53;;;10.60;32.30
64683;BME280;51107;47.652;19.016;2023-04-05T10:50:15;100110.81;;;10.22;32.43
64683;BME280;51107;47.652;19.016;2023-04-05T10:52:46;100091.78;;;9.92;35.62
64683;BME280;51107;47.652;19.016;2023-04-05T10:55:15;100107.41;;;9.82;32.88
64683;BME280;51107;47.652;19.016;2023-04-05T10:57:45;100095.38;;;9.81;35.89
64683;BME280;51107;47.652;19.016;2023-04-05T11:00:15;100096.16;;;10.40;33.26
64683;BME280;51107;47.652;19.016;2023-04-05T11:02:47;100097.94;;;10.20;33.27
64683;BME280;51107;47.652;19.016;2023-04-05T11:05:34;100101.81;;;10.06;36.23
64683;BME280;51107;47.652;19.016;2023-04-05T11:08:06;100094.75;;;9.09;32.73
64683;BME280;51107;47.652;19.016;2023-04-05T11:10:36;100099.75;;;10.10;33.44
64683;BME280;51107;47.652;19.016;2023-04-05T11:13:07;100083.66;;;10.34;34.03
64683;BME280;51107;47.652;19.016;2023-04-05T11:15:36;100089.00;;;10.42;32.65
64683;BME280;51107;47.652;19.016;2023-04-05T11:21:05;100082.09;;;9.84;33.15
64683;BME280;51107;47.652;19.016;2023-04-05T11:24:15;100072.13;;;10.46;33.60
64683;BME280;51107;47.652;19.016;2023-04-05T11:29:16;100090.03;;;9.92;34.71
64683;BME280;51107;47.652;19.016;2023-04-05T11:31:59;100093.75;;;9.60;34.75
64683;BME280;51107;47.652;19.016;2023-04-05T11:34:28;100079.50;;;9.84;32.04
64683;BME280;51107;47.652;19.016;2023-04-05T11:36:56;100072.53;;;9.55;33.87
64683;BME280;51107;47.652;19.016;2023-04-05T11:39:26;100070.44;;;9.39;32.77
64683;BME280;51107;47.652;19.016;2023-04-05T11:42:04;100078.81;;;9.52;34.79
64683;BME280;51107;47.652;19.016;2023-04-05T11:44:46;100073.72;;;9.22;34.50
64683;BME280;51107;47.652;19.016;2023-04-05T11:47:19;100076.31;;;9.22;35.19
64683;BME280;51107;47.652;19.016;2023-04-05T11:49:51;100076.34;;;9.41;33.54
64683;BME280;51107;47.652;19.016;2023-04-05T11:52:20;100066.22;;;9.58;32.64
64683;BME280;51107;47.652;19.016;2023-04-05T11:54:48;100058.41;;;9.38;32.14
64683;BME280;51107;47.652;19.016;2023-04-05T11:57:19;100060.03;;;9.49;32.76
64683;BME280;51107;47.652;19.016;2023-04-05T11:59:50;100059.41;;;8.87;30.75
64683;BME280;51107;47.652;19.016;2023-04-05T12:02:20;100061.88;;;8.88;32.33
64683;BME280;51107;47.652;19.016;2023-04-05T12:04:55;100051.94;;;8.41;31.90
64683;BME280;51107;47.652;19.016;2023-04-05T12:07:26;100057.22;;;7.99;31.74
64683;BME280;51107;47.652;19.016;2023-04-05T12:10:05;100048.13;;;8.57;33.44
64683;BME280;51107;47.652;19.016;2023-04-05T12:12:44;100058.75;;;7.90;31.94
64683;BME280;51107;47.652;19.016;2023-04-05T12:15:16;100055.16;;;8.24;33.86
64683;BME280;51107;47.652;19.016;2023-04-05T12:17:47;100039.94;;;8.40;33.23
64683;BME280;51107;47.652;19.016;2023-04-05T12:20:21;100039.19;;;8.28;32.51
64683;BME280;51107;47.652;19.016;2023-04-05T12:22:53;100028.34;;;8.75;34.88
64683;BME280;51107;47.652;19.016;2023-04-05T12:25:23;100035.31;;;8.75;32.78
64683;BME280;51107;47.652;19.016;2023-04-05T12:27:51;100030.66;;;8.78;33.44
64683;BME280;51107;47.652;19.016;2023-04-05T12:30:22;100032.03;;;8.82;33.23
64683;BME280;51107;47.652;19.016;2023-04-05T12:32:54;100037.81;;;8.24;31.03
64683;BME280;51107;47.652;19.016;2023-04-05T12:35:27;100027.41;;;8.45;32.50
64683;BME280;51107;47.652;19.016;2023-04-05T12:38:00;100029.06;;;8.46;32.69
64683;BME280;51107;47.652;19.016;2023-04-05T12:40:32;100026.13;;;8.40;32.03
64683;BME280;51107;47.652;19.016;2023-04-05T12:43:03;100023.31;;;8.22;32.67
64683;BME280;51107;47.652;19.016;2023-04-05T12:45:32;100022.00;;;8.37;32.84
64683;BME280;51107;47.652;19.016;2023-04-05T12:48:10;100023.94;;;8.14;33.67
64683;BME280;51107;47.652;19.016;2023-04-05T12:50:47;100022.28;;;8.34;33.91
64683;BME280;51107;47.652;19.016;2023-04-05T12:53:20;100028.28;;;8.34;33.49
64683;BME280;51107;47.652;19.016;2023-04-05T12:55:51;100024.91;;;7.92;33.17
64683;BME280;51107;47.652;19.016;2023-04-05T12:58:36;100020.69;;;7.70;32.99
64683;BME280;51107;47.652;19.016;2023-04-05T13:01:04;100021.13;;;7.96;35.35
64683;BME280;51107;47.652;19.016;2023-04-05T13:03:33;100009.03;;;8.37;33.00
64683;BME280;51107;47.652;19.016;2023-04-05T13:06:01;100009.84;;;8.28;33.13
64683;BME280;51107;47.652;19.016;2023-04-05T13:08:30;100016.16;;;8.14;32.72
64683;BME280;51107;47.652;19.016;2023-04-05T13:10:59;100006.03;;;8.32;33.30
64683;BME280;51107;47.652;19.016;2023-04-05T13:13:28;100012.19;;;8.41;34.02
64683;BME280;51107;47.652;19.016;2023-04-05T13:15:56;100012.34;;;8.39;32.74
64683;BME280;51107;47.652;19.016;2023-04-05T13:18:25;100006.16;;;8.61;32.74
64683;BME280;51107;47.652;19.016;2023-04-05T13:20:53;100003.97;;;8.57;32.17
64683;BME280;51107;47.652;19.016;2023-04-05T13:23:21;100003.41;;;8.53;32.31
64683;BME280;51107;47.652;19.016;2023-04-05T13:25:50;99997.16;;;8.65;33.11
64683;BME280;51107;47.652;19.016;2023-04-05T13:28:18;100018.72;;;8.56;32.47
64683;BME280;51107;47.652;19.016;2023-04-05T13:30:47;100004.25;;;8.32;32.60